ROMMA est une association bénévole à but non lucratif. Votre soutien est indispensable : ADHERER à ROMMA ou FAIRE un DON

Crest - (26, Drôme)

Vallée de la Drôme (315 m)   Longitude: 5°2' E   Latitude: 44°44' N Station partenaire n°62
 

Détail journalier du     <<     >>

Température Precipitation Humidité Pression Vent Dir Rafale Dir. rafale Ensol.
Heure (°C) (mm) (%) (hPa) (km/h) (km/h) (min)
01:00 21.706210121SE6S0
02:00 21.306110121SE6SE0
03:00 20.806010121---6SSE0
04:00 20.206510121SE10SE0
05:00 19.706410121ESE6SE0
06:00 18.606810123SE15SE0
07:00 19.206510122SE13ESE0
08:00 19.406510122SE11SE0
09:00 23.205910122SE10ENE25
10:00 25.306110128SE24SE60
11:00 26.805610129SE23SE59
12:00 28.804610128SE23SE60
13:00 30.6040101210SE29SE60
14:00 31.7036101111SE32SE60
15:00 32.2035101113SE32SE60
16:00 32.7035101113SE37SE60
17:00 32.4038101013SE37SE60
18:00 31.4041101012SE35SE60
19:00 30.2044101013SE32ESE60
20:00 28.4051101010SE39SE21
21:00 26.7059101211SE32SE0
22:00 25.406710136SE21SE0
23:00 24.807110136SE19SE0
minuit 24.107410135SE16SE0

Graphique du 09-08-2019

 

Serveur OMMA